sensor_id;sensor_type;location;lat;lon;timestamp;P1;durP1;ratioP1;P2;durP2;ratioP2
52614;SDS011;38508;53.158;6.614;2022-10-24T00:02:03;7.40;;;2.25;;
52614;SDS011;38508;53.158;6.614;2022-10-24T00:04:30;6.10;;;2.15;;
52614;SDS011;38508;53.158;6.614;2022-10-24T00:06:58;9.43;;;1.85;;
52614;SDS011;38508;53.158;6.614;2022-10-24T00:09:24;7.80;;;1.73;;
52614;SDS011;38508;53.158;6.614;2022-10-24T00:11:50;5.50;;;1.92;;
52614;SDS011;38508;53.158;6.614;2022-10-24T00:14:15;5.85;;;1.80;;
52614;SDS011;38508;53.158;6.614;2022-10-24T00:16:41;5.38;;;1.83;;
52614;SDS011;38508;53.158;6.614;2022-10-24T00:19:07;10.60;;;2.33;;
52614;SDS011;38508;53.158;6.614;2022-10-24T00:21:33;9.30;;;1.58;;
52614;SDS011;38508;53.158;6.614;2022-10-24T00:23:58;8.82;;;1.80;;
52614;SDS011;38508;53.158;6.614;2022-10-24T00:26:24;5.25;;;1.73;;
52614;SDS011;38508;53.158;6.614;2022-10-24T00:28:50;7.60;;;1.60;;
52614;SDS011;38508;53.158;6.614;2022-10-24T00:31:17;4.43;;;1.75;;
52614;SDS011;38508;53.158;6.614;2022-10-24T00:33:43;6.32;;;1.70;;
52614;SDS011;38508;53.158;6.614;2022-10-24T00:36:14;3.42;;;1.38;;
52614;SDS011;38508;53.158;6.614;2022-10-24T00:38:41;6.65;;;1.20;;
52614;SDS011;38508;53.158;6.614;2022-10-24T00:41:09;3.13;;;1.33;;
52614;SDS011;38508;53.158;6.614;2022-10-24T00:43:39;9.38;;;1.48;;
52614;SDS011;38508;53.158;6.614;2022-10-24T00:46:05;5.95;;;1.35;;
52614;SDS011;38508;53.158;6.614;2022-10-24T00:48:31;5.53;;;1.65;;
52614;SDS011;38508;53.158;6.614;2022-10-24T00:51:02;6.35;;;1.50;;
52614;SDS011;38508;53.158;6.614;2022-10-24T00:53:31;7.05;;;1.45;;
52614;SDS011;38508;53.158;6.614;2022-10-24T00:56:03;8.32;;;1.52;;
52614;SDS011;38508;53.158;6.614;2022-10-24T00:58:31;4.78;;;1.27;;
52614;SDS011;38508;53.158;6.614;2022-10-24T01:00:59;5.18;;;1.20;;
52614;SDS011;38508;53.158;6.614;2022-10-24T01:03:26;7.15;;;1.42;;
52614;SDS011;38508;53.158;6.614;2022-10-24T01:06:08;8.65;;;1.25;;
52614;SDS011;38508;53.158;6.614;2022-10-24T01:11:39;8.40;;;1.30;;
52614;SDS011;38508;53.158;6.614;2022-10-24T01:17:06;6.80;;;1.38;;
52614;SDS011;38508;53.158;6.614;2022-10-24T01:28:29;7.68;;;1.55;;
52614;SDS011;38508;53.158;6.614;2022-10-24T01:31:07;6.55;;;1.45;;
52614;SDS011;38508;53.158;6.614;2022-10-24T01:33:39;7.80;;;1.95;;
52614;SDS011;38508;53.158;6.614;2022-10-24T01:36:16;9.05;;;1.70;;
52614;SDS011;38508;53.158;6.614;2022-10-24T01:38:55;5.65;;;1.70;;
52614;SDS011;38508;53.158;6.614;2022-10-24T01:41:24;5.78;;;1.70;;
52614;SDS011;38508;53.158;6.614;2022-10-24T01:43:53;8.98;;;1.85;;
52614;SDS011;38508;53.158;6.614;2022-10-24T01:46:32;6.88;;;1.75;;
52614;SDS011;38508;53.158;6.614;2022-10-24T01:49:02;9.52;;;1.83;;
52614;SDS011;38508;53.158;6.614;2022-10-24T01:51:33;5.22;;;1.98;;
52614;SDS011;38508;53.158;6.614;2022-10-24T01:54:00;9.82;;;1.90;;
52614;SDS011;38508;53.158;6.614;2022-10-24T01:56:28;6.75;;;1.60;;
52614;SDS011;38508;53.158;6.614;2022-10-24T01:59:02;11.10;;;1.88;;
52614;SDS011;38508;53.158;6.614;2022-10-24T02:01:47;6.47;;;1.98;;
52614;SDS011;38508;53.158;6.614;2022-10-24T02:04:12;6.93;;;2.20;;
52614;SDS011;38508;53.158;6.614;2022-10-24T02:06:39;14.95;;;2.33;;
52614;SDS011;38508;53.158;6.614;2022-10-24T02:09:08;8.38;;;2.03;;
52614;SDS011;38508;53.158;6.614;2022-10-24T02:11:38;5.03;;;1.80;;
52614;SDS011;38508;53.158;6.614;2022-10-24T02:14:07;10.27;;;2.30;;
52614;SDS011;38508;53.158;6.614;2022-10-24T02:16:47;10.32;;;2.70;;
52614;SDS011;38508;53.158;6.614;2022-10-24T02:19:14;6.65;;;2.00;;
52614;SDS011;38508;53.158;6.614;2022-10-24T02:29:47;8.55;;;1.90;;
52614;SDS011;38508;53.158;6.614;2022-10-24T02:32:29;11.32;;;2.05;;
52614;SDS011;38508;53.158;6.614;2022-10-24T02:35:00;6.65;;;1.80;;
52614;SDS011;38508;53.158;6.614;2022-10-24T02:37:28;12.98;;;2.20;;
52614;SDS011;38508;53.158;6.614;2022-10-24T02:39:56;6.43;;;1.77;;
52614;SDS011;38508;53.158;6.614;2022-10-24T02:42:23;8.52;;;1.90;;
52614;SDS011;38508;53.158;6.614;2022-10-24T02:44:52;9.40;;;2.08;;
52614;SDS011;38508;53.158;6.614;2022-10-24T02:47:19;9.93;;;2.10;;
52614;SDS011;38508;53.158;6.614;2022-10-24T02:49:46;9.38;;;2.38;;
52614;SDS011;38508;53.158;6.614;2022-10-24T02:52:12;7.43;;;1.92;;
52614;SDS011;38508;53.158;6.614;2022-10-24T02:54:39;11.00;;;2.28;;
52614;SDS011;38508;53.158;6.614;2022-10-24T02:57:04;10.93;;;2.15;;
52614;SDS011;38508;53.158;6.614;2022-10-24T02:59:30;10.60;;;2.00;;
52614;SDS011;38508;53.158;6.614;2022-10-24T03:01:56;9.18;;;2.20;;
52614;SDS011;38508;53.158;6.614;2022-10-24T03:04:21;7.95;;;1.90;;
52614;SDS011;38508;53.158;6.614;2022-10-24T03:06:48;8.27;;;1.90;;
52614;SDS011;38508;53.158;6.614;2022-10-24T03:09:14;8.45;;;1.80;;
52614;SDS011;38508;53.158;6.614;2022-10-24T03:11:39;10.43;;;2.03;;
52614;SDS011;38508;53.158;6.614;2022-10-24T03:14:05;5.15;;;1.85;;
52614;SDS011;38508;53.158;6.614;2022-10-24T03:16:31;15.68;;;2.13;;
52614;SDS011;38508;53.158;6.614;2022-10-24T03:18:57;7.95;;;1.95;;
52614;SDS011;38508;53.158;6.614;2022-10-24T03:21:23;9.65;;;2.25;;
52614;SDS011;38508;53.158;6.614;2022-10-24T03:23:48;8.20;;;1.90;;
52614;SDS011;38508;53.158;6.614;2022-10-24T03:26:14;11.30;;;2.15;;
52614;SDS011;38508;53.158;6.614;2022-10-24T03:28:40;7.25;;;1.73;;
52614;SDS011;38508;53.158;6.614;2022-10-24T03:31:06;6.50;;;1.65;;
52614;SDS011;38508;53.158;6.614;2022-10-24T03:33:31;9.55;;;1.67;;
52614;SDS011;38508;53.158;6.614;2022-10-24T03:35:57;9.02;;;2.13;;
52614;SDS011;38508;53.158;6.614;2022-10-24T03:38:23;5.82;;;2.40;;
52614;SDS011;38508;53.158;6.614;2022-10-24T03:40:49;9.55;;;1.92;;
52614;SDS011;38508;53.158;6.614;2022-10-24T03:43:15;9.52;;;2.20;;
52614;SDS011;38508;53.158;6.614;2022-10-24T03:45:42;12.02;;;2.75;;
52614;SDS011;38508;53.158;6.614;2022-10-24T03:48:08;7.80;;;1.85;;
52614;SDS011;38508;53.158;6.614;2022-10-24T03:50:34;8.68;;;2.03;;
52614;SDS011;38508;53.158;6.614;2022-10-24T03:52:59;7.95;;;1.92;;
52614;SDS011;38508;53.158;6.614;2022-10-24T03:55:25;5.30;;;1.77;;
52614;SDS011;38508;53.158;6.614;2022-10-24T03:57:51;7.30;;;1.98;;
52614;SDS011;38508;53.158;6.614;2022-10-24T04:00:18;11.57;;;2.00;;
52614;SDS011;38508;53.158;6.614;2022-10-24T04:02:44;9.70;;;2.00;;
52614;SDS011;38508;53.158;6.614;2022-10-24T04:05:10;7.57;;;2.20;;
52614;SDS011;38508;53.158;6.614;2022-10-24T04:07:36;5.35;;;1.90;;
52614;SDS011;38508;53.158;6.614;2022-10-24T04:10:03;8.18;;;1.80;;
52614;SDS011;38508;53.158;6.614;2022-10-24T04:12:29;6.90;;;2.25;;
52614;SDS011;38508;53.158;6.614;2022-10-24T04:14:55;9.45;;;2.20;;
52614;SDS011;38508;53.158;6.614;2022-10-24T04:17:20;6.80;;;1.73;;
52614;SDS011;38508;53.158;6.614;2022-10-24T04:19:46;6.35;;;1.75;;
52614;SDS011;38508;53.158;6.614;2022-10-24T04:22:12;7.43;;;1.85;;
52614;SDS011;38508;53.158;6.614;2022-10-24T04:24:37;10.23;;;2.00;;
52614;SDS011;38508;53.158;6.614;2022-10-24T04:27:04;9.38;;;2.00;;
52614;SDS011;38508;53.158;6.614;2022-10-24T04:29:30;10.45;;;2.33;;
52614;SDS011;38508;53.158;6.614;2022-10-24T04:31:56;8.18;;;2.05;;
52614;SDS011;38508;53.158;6.614;2022-10-24T04:34:22;7.70;;;1.90;;
52614;SDS011;38508;53.158;6.614;2022-10-24T04:36:47;6.75;;;2.25;;
52614;SDS011;38508;53.158;6.614;2022-10-24T04:39:13;12.20;;;2.00;;
52614;SDS011;38508;53.158;6.614;2022-10-24T04:41:38;9.63;;;1.83;;
52614;SDS011;38508;53.158;6.614;2022-10-24T04:44:04;11.07;;;1.90;;
52614;SDS011;38508;53.158;6.614;2022-10-24T04:46:30;10.02;;;2.10;;
52614;SDS011;38508;53.158;6.614;2022-10-24T04:48:55;8.88;;;1.85;;
52614;SDS011;38508;53.158;6.614;2022-10-24T04:51:21;8.25;;;2.13;;
52614;SDS011;38508;53.158;6.614;2022-10-24T04:53:47;12.70;;;2.67;;
52614;SDS011;38508;53.158;6.614;2022-10-24T04:56:13;12.20;;;1.92;;
52614;SDS011;38508;53.158;6.614;2022-10-24T04:58:38;8.18;;;1.70;;
52614;SDS011;38508;53.158;6.614;2022-10-24T05:01:04;7.35;;;1.75;;
52614;SDS011;38508;53.158;6.614;2022-10-24T05:03:30;10.05;;;1.85;;
52614;SDS011;38508;53.158;6.614;2022-10-24T05:05:55;5.53;;;1.50;;
52614;SDS011;38508;53.158;6.614;2022-10-24T05:08:21;8.77;;;1.38;;
52614;SDS011;38508;53.158;6.614;2022-10-24T05:10:47;11.68;;;1.63;;
52614;SDS011;38508;53.158;6.614;2022-10-24T05:13:12;10.85;;;2.08;;
52614;SDS011;38508;53.158;6.614;2022-10-24T05:15:38;6.72;;;1.67;;
52614;SDS011;38508;53.158;6.614;2022-10-24T05:18:04;6.15;;;1.52;;
52614;SDS011;38508;53.158;6.614;2022-10-24T05:20:29;10.05;;;2.00;;
52614;SDS011;38508;53.158;6.614;2022-10-24T05:22:55;7.47;;;1.67;;
52614;SDS011;38508;53.158;6.614;2022-10-24T05:25:21;10.73;;;1.95;;
52614;SDS011;38508;53.158;6.614;2022-10-24T05:27:47;7.32;;;1.60;;
52614;SDS011;38508;53.158;6.614;2022-10-24T05:30:12;10.98;;;1.65;;
52614;SDS011;38508;53.158;6.614;2022-10-24T05:32:38;8.32;;;1.40;;
52614;SDS011;38508;53.158;6.614;2022-10-24T05:35:04;8.27;;;2.03;;
52614;SDS011;38508;53.158;6.614;2022-10-24T05:37:30;8.77;;;1.85;;
52614;SDS011;38508;53.158;6.614;2022-10-24T05:39:56;5.43;;;1.63;;
52614;SDS011;38508;53.158;6.614;2022-10-24T05:42:21;6.10;;;1.60;;
52614;SDS011;38508;53.158;6.614;2022-10-24T05:44:47;8.25;;;1.65;;
52614;SDS011;38508;53.158;6.614;2022-10-24T05:47:13;9.00;;;1.40;;
52614;SDS011;38508;53.158;6.614;2022-10-24T05:49:38;8.48;;;1.70;;
52614;SDS011;38508;53.158;6.614;2022-10-24T05:52:04;6.50;;;1.55;;
52614;SDS011;38508;53.158;6.614;2022-10-24T05:54:30;5.88;;;1.33;;
52614;SDS011;38508;53.158;6.614;2022-10-24T05:56:56;7.13;;;1.40;;
52614;SDS011;38508;53.158;6.614;2022-10-24T05:59:21;12.27;;;1.67;;
52614;SDS011;38508;53.158;6.614;2022-10-24T06:01:47;11.13;;;1.77;;
52614;SDS011;38508;53.158;6.614;2022-10-24T06:04:12;5.88;;;1.45;;
52614;SDS011;38508;53.158;6.614;2022-10-24T06:06:39;6.40;;;1.67;;
52614;SDS011;38508;53.158;6.614;2022-10-24T06:09:06;8.43;;;1.75;;
52614;SDS011;38508;53.158;6.614;2022-10-24T06:11:32;6.30;;;1.63;;
52614;SDS011;38508;53.158;6.614;2022-10-24T06:13:58;6.95;;;1.55;;
52614;SDS011;38508;53.158;6.614;2022-10-24T06:16:24;7.88;;;1.73;;
52614;SDS011;38508;53.158;6.614;2022-10-24T06:18:51;9.35;;;1.33;;
52614;SDS011;38508;53.158;6.614;2022-10-24T06:21:17;4.40;;;1.10;;
52614;SDS011;38508;53.158;6.614;2022-10-24T06:23:43;6.03;;;1.23;;
52614;SDS011;38508;53.158;6.614;2022-10-24T06:26:09;9.98;;;1.55;;
52614;SDS011;38508;53.158;6.614;2022-10-24T06:28:36;9.93;;;1.70;;
52614;SDS011;38508;53.158;6.614;2022-10-24T06:31:03;6.70;;;1.45;;
52614;SDS011;38508;53.158;6.614;2022-10-24T06:33:29;12.68;;;1.40;;
52614;SDS011;38508;53.158;6.614;2022-10-24T06:35:57;13.73;;;1.63;;
52614;SDS011;38508;53.158;6.614;2022-10-24T06:38:24;8.75;;;1.50;;
52614;SDS011;38508;53.158;6.614;2022-10-24T06:40:49;6.38;;;1.13;;
52614;SDS011;38508;53.158;6.614;2022-10-24T06:43:15;7.15;;;1.05;;
52614;SDS011;38508;53.158;6.614;2022-10-24T06:45:43;8.15;;;1.30;;
52614;SDS011;38508;53.158;6.614;2022-10-24T06:48:09;7.47;;;1.20;;
52614;SDS011;38508;53.158;6.614;2022-10-24T06:50:36;7.60;;;0.90;;
52614;SDS011;38508;53.158;6.614;2022-10-24T06:53:04;8.27;;;1.10;;
52614;SDS011;38508;53.158;6.614;2022-10-24T06:55:31;11.98;;;1.25;;
52614;SDS011;38508;53.158;6.614;2022-10-24T06:57:57;5.43;;;1.27;;
52614;SDS011;38508;53.158;6.614;2022-10-24T07:00:23;4.97;;;1.08;;
52614;SDS011;38508;53.158;6.614;2022-10-24T07:02:48;11.00;;;0.98;;
52614;SDS011;38508;53.158;6.614;2022-10-24T07:05:14;6.22;;;1.30;;
52614;SDS011;38508;53.158;6.614;2022-10-24T07:07:40;4.68;;;1.10;;
52614;SDS011;38508;53.158;6.614;2022-10-24T07:10:09;6.95;;;1.17;;
52614;SDS011;38508;53.158;6.614;2022-10-24T07:12:36;8.07;;;1.30;;
52614;SDS011;38508;53.158;6.614;2022-10-24T07:15:02;4.80;;;1.23;;
52614;SDS011;38508;53.158;6.614;2022-10-24T07:17:28;5.25;;;1.20;;
52614;SDS011;38508;53.158;6.614;2022-10-24T07:19:54;7.35;;;1.10;;
52614;SDS011;38508;53.158;6.614;2022-10-24T07:22:20;4.47;;;1.00;;
52614;SDS011;38508;53.158;6.614;2022-10-24T07:24:53;7.93;;;1.85;;
52614;SDS011;38508;53.158;6.614;2022-10-24T07:27:19;6.28;;;1.23;;
52614;SDS011;38508;53.158;6.614;2022-10-24T07:29:45;7.63;;;1.25;;
52614;SDS011;38508;53.158;6.614;2022-10-24T07:32:11;10.73;;;1.52;;
52614;SDS011;38508;53.158;6.614;2022-10-24T07:34:37;6.35;;;1.27;;
52614;SDS011;38508;53.158;6.614;2022-10-24T07:37:04;8.00;;;1.52;;
52614;SDS011;38508;53.158;6.614;2022-10-24T07:39:30;5.80;;;1.20;;
52614;SDS011;38508;53.158;6.614;2022-10-24T07:41:55;5.47;;;1.10;;
52614;SDS011;38508;53.158;6.614;2022-10-24T07:44:21;8.02;;;1.63;;
52614;SDS011;38508;53.158;6.614;2022-10-24T07:46:47;9.02;;;1.60;;
52614;SDS011;38508;53.158;6.614;2022-10-24T07:49:12;13.40;;;2.55;;
52614;SDS011;38508;53.158;6.614;2022-10-24T07:51:39;10.10;;;1.73;;
52614;SDS011;38508;53.158;6.614;2022-10-24T07:54:05;6.47;;;0.85;;
52614;SDS011;38508;53.158;6.614;2022-10-24T07:56:31;8.15;;;0.90;;
52614;SDS011;38508;53.158;6.614;2022-10-24T07:58:57;7.10;;;1.25;;
52614;SDS011;38508;53.158;6.614;2022-10-24T08:01:25;9.18;;;1.30;;
52614;SDS011;38508;53.158;6.614;2022-10-24T08:03:52;6.35;;;1.08;;
52614;SDS011;38508;53.158;6.614;2022-10-24T08:06:22;20.98;;;1.73;;
52614;SDS011;38508;53.158;6.614;2022-10-24T08:08:52;9.00;;;1.63;;
52614;SDS011;38508;53.158;6.614;2022-10-24T08:11:19;4.80;;;0.98;;
52614;SDS011;38508;53.158;6.614;2022-10-24T08:13:47;9.85;;;1.30;;
52614;SDS011;38508;53.158;6.614;2022-10-24T08:16:14;6.95;;;1.27;;
52614;SDS011;38508;53.158;6.614;2022-10-24T08:18:42;7.35;;;1.38;;
52614;SDS011;38508;53.158;6.614;2022-10-24T08:21:08;10.10;;;1.50;;
52614;SDS011;38508;53.158;6.614;2022-10-24T08:23:36;5.07;;;1.30;;
52614;SDS011;38508;53.158;6.614;2022-10-24T08:26:04;5.55;;;1.40;;
52614;SDS011;38508;53.158;6.614;2022-10-24T08:28:35;6.10;;;1.15;;
52614;SDS011;38508;53.158;6.614;2022-10-24T08:31:05;7.47;;;1.13;;
52614;SDS011;38508;53.158;6.614;2022-10-24T08:33:33;8.45;;;1.20;;
52614;SDS011;38508;53.158;6.614;2022-10-24T08:36:00;5.93;;;1.13;;
52614;SDS011;38508;53.158;6.614;2022-10-24T08:38:30;8.40;;;1.13;;
52614;SDS011;38508;53.158;6.614;2022-10-24T08:40:56;6.55;;;1.17;;
52614;SDS011;38508;53.158;6.614;2022-10-24T08:43:22;6.72;;;1.23;;
52614;SDS011;38508;53.158;6.614;2022-10-24T08:46:03;6.80;;;1.20;;
52614;SDS011;38508;53.158;6.614;2022-10-24T08:48:46;7.40;;;1.38;;
52614;SDS011;38508;53.158;6.614;2022-10-24T08:54:00;8.30;;;1.00;;
52614;SDS011;38508;53.158;6.614;2022-10-24T08:56:28;7.45;;;1.10;;
52614;SDS011;38508;53.158;6.614;2022-10-24T08:58:58;7.25;;;1.08;;
52614;SDS011;38508;53.158;6.614;2022-10-24T09:04:03;7.97;;;1.60;;
52614;SDS011;38508;53.158;6.614;2022-10-24T09:06:32;8.25;;;1.40;;
52614;SDS011;38508;53.158;6.614;2022-10-24T09:14:30;10.00;;;1.33;;
52614;SDS011;38508;53.158;6.614;2022-10-24T09:19:47;6.10;;;1.15;;
52614;SDS011;38508;53.158;6.614;2022-10-24T09:22:14;8.38;;;1.17;;
52614;SDS011;38508;53.158;6.614;2022-10-24T09:24:57;9.50;;;1.30;;
52614;SDS011;38508;53.158;6.614;2022-10-24T09:27:32;7.55;;;1.40;;
52614;SDS011;38508;53.158;6.614;2022-10-24T09:30:00;7.88;;;1.33;;
52614;SDS011;38508;53.158;6.614;2022-10-24T09:32:28;7.53;;;1.25;;
52614;SDS011;38508;53.158;6.614;2022-10-24T09:34:59;8.90;;;1.45;;
52614;SDS011;38508;53.158;6.614;2022-10-24T09:45:39;7.75;;;1.13;;
52614;SDS011;38508;53.158;6.614;2022-10-24T09:48:22;9.38;;;1.05;;
52614;SDS011;38508;53.158;6.614;2022-10-24T09:50:52;7.53;;;1.02;;
52614;SDS011;38508;53.158;6.614;2022-10-24T09:53:33;10.27;;;1.00;;
52614;SDS011;38508;53.158;6.614;2022-10-24T09:56:10;11.07;;;1.70;;
52614;SDS011;38508;53.158;6.614;2022-10-24T09:58:38;7.13;;;0.88;;
52614;SDS011;38508;53.158;6.614;2022-10-24T10:03:30;6.45;;;1.42;;
52614;SDS011;38508;53.158;6.614;2022-10-24T10:05:58;8.48;;;1.17;;
52614;SDS011;38508;53.158;6.614;2022-10-24T10:08:35;7.90;;;1.35;;
52614;SDS011;38508;53.158;6.614;2022-10-24T10:11:05;6.20;;;1.05;;
52614;SDS011;38508;53.158;6.614;2022-10-24T10:13:33;5.93;;;1.08;;
52614;SDS011;38508;53.158;6.614;2022-10-24T10:16:21;6.43;;;1.00;;
52614;SDS011;38508;53.158;6.614;2022-10-24T10:18:48;11.57;;;1.20;;
52614;SDS011;38508;53.158;6.614;2022-10-24T10:21:19;6.15;;;1.17;;
52614;SDS011;38508;53.158;6.614;2022-10-24T10:26:16;12.88;;;1.10;;
52614;SDS011;38508;53.158;6.614;2022-10-24T10:28:45;11.30;;;1.00;;
52614;SDS011;38508;53.158;6.614;2022-10-24T10:31:18;7.63;;;0.90;;
52614;SDS011;38508;53.158;6.614;2022-10-24T10:39:38;6.28;;;1.00;;
52614;SDS011;38508;53.158;6.614;2022-10-24T10:45:28;13.15;;;1.65;;
52614;SDS011;38508;53.158;6.614;2022-10-24T10:53:24;7.03;;;1.00;;
52614;SDS011;38508;53.158;6.614;2022-10-24T10:56:20;5.25;;;0.90;;
52614;SDS011;38508;53.158;6.614;2022-10-24T10:58:50;8.25;;;1.27;;
52614;SDS011;38508;53.158;6.614;2022-10-24T11:04:10;8.32;;;1.60;;
52614;SDS011;38508;53.158;6.614;2022-10-24T11:09:56;8.65;;;1.52;;
52614;SDS011;38508;53.158;6.614;2022-10-24T11:12:30;6.53;;;1.00;;
52614;SDS011;38508;53.158;6.614;2022-10-24T11:15:02;11.73;;;1.30;;
52614;SDS011;38508;53.158;6.614;2022-10-24T11:17:31;9.30;;;1.42;;
52614;SDS011;38508;53.158;6.614;2022-10-24T11:22:53;5.60;;;0.93;;
52614;SDS011;38508;53.158;6.614;2022-10-24T11:25:30;5.68;;;0.90;;
52614;SDS011;38508;53.158;6.614;2022-10-24T11:30:53;8.40;;;1.15;;
52614;SDS011;38508;53.158;6.614;2022-10-24T11:33:27;7.82;;;1.45;;
52614;SDS011;38508;53.158;6.614;2022-10-24T11:36:06;6.85;;;1.08;;
52614;SDS011;38508;53.158;6.614;2022-10-24T11:38:41;10.57;;;1.30;;
52614;SDS011;38508;53.158;6.614;2022-10-24T11:41:21;10.32;;;1.08;;
52614;SDS011;38508;53.158;6.614;2022-10-24T11:43:50;7.25;;;1.20;;
52614;SDS011;38508;53.158;6.614;2022-10-24T11:46:21;7.13;;;1.10;;
52614;SDS011;38508;53.158;6.614;2022-10-24T11:48:59;9.70;;;1.23;;
52614;SDS011;38508;53.158;6.614;2022-10-24T11:57:18;7.28;;;1.15;;
52614;SDS011;38508;53.158;6.614;2022-10-24T11:59:51;8.80;;;1.48;;
52614;SDS011;38508;53.158;6.614;2022-10-24T12:05:22;6.97;;;0.90;;
52614;SDS011;38508;53.158;6.614;2022-10-24T12:07:56;6.20;;;1.02;;
52614;SDS011;38508;53.158;6.614;2022-10-24T12:16:51;9.15;;;1.10;;
52614;SDS011;38508;53.158;6.614;2022-10-24T12:19:40;7.00;;;1.20;;
52614;SDS011;38508;53.158;6.614;2022-10-24T12:22:12;7.60;;;1.10;;
52614;SDS011;38508;53.158;6.614;2022-10-24T12:25:00;5.78;;;0.70;;
52614;SDS011;38508;53.158;6.614;2022-10-24T12:27:30;9.10;;;1.08;;
52614;SDS011;38508;53.158;6.614;2022-10-24T12:30:16;6.45;;;1.30;;
52614;SDS011;38508;53.158;6.614;2022-10-24T12:32:49;7.82;;;1.02;;
52614;SDS011;38508;53.158;6.614;2022-10-24T12:35:32;9.95;;;1.70;;
52614;SDS011;38508;53.158;6.614;2022-10-24T12:45:56;11.60;;;1.52;;
52614;SDS011;38508;53.158;6.614;2022-10-24T12:48:32;5.43;;;0.95;;
52614;SDS011;38508;53.158;6.614;2022-10-24T12:53:30;9.48;;;1.25;;
52614;SDS011;38508;53.158;6.614;2022-10-24T12:58:31;9.75;;;1.20;;
52614;SDS011;38508;53.158;6.614;2022-10-24T13:01:03;8.98;;;1.00;;
52614;SDS011;38508;53.158;6.614;2022-10-24T13:09:34;7.72;;;1.13;;
52614;SDS011;38508;53.158;6.614;2022-10-24T13:20:39;6.57;;;1.02;;
52614;SDS011;38508;53.158;6.614;2022-10-24T13:23:19;6.13;;;1.08;;
52614;SDS011;38508;53.158;6.614;2022-10-24T13:25:51;7.53;;;1.02;;
52614;SDS011;38508;53.158;6.614;2022-10-24T13:30:49;6.35;;;1.17;;
52614;SDS011;38508;53.158;6.614;2022-10-24T13:52:23;11.80;;;1.20;;
52614;SDS011;38508;53.158;6.614;2022-10-24T13:55:01;5.20;;;0.98;;
52614;SDS011;38508;53.158;6.614;2022-10-24T13:57:49;6.43;;;0.90;;
52614;SDS011;38508;53.158;6.614;2022-10-24T14:00:32;6.82;;;1.00;;
52614;SDS011;38508;53.158;6.614;2022-10-24T14:03:09;5.50;;;0.93;;
52614;SDS011;38508;53.158;6.614;2022-10-24T14:05:42;7.32;;;0.73;;
52614;SDS011;38508;53.158;6.614;2022-10-24T14:08:30;7.97;;;0.90;;
52614;SDS011;38508;53.158;6.614;2022-10-24T14:11:02;13.43;;;2.58;;
52614;SDS011;38508;53.158;6.614;2022-10-24T14:13:31;7.90;;;1.17;;
52614;SDS011;38508;53.158;6.614;2022-10-24T14:16:00;7.07;;;0.88;;
52614;SDS011;38508;53.158;6.614;2022-10-24T14:18:28;6.65;;;1.10;;
52614;SDS011;38508;53.158;6.614;2022-10-24T14:20:55;6.18;;;0.82;;
52614;SDS011;38508;53.158;6.614;2022-10-24T14:23:33;4.13;;;0.88;;
52614;SDS011;38508;53.158;6.614;2022-10-24T14:26:11;5.50;;;1.25;;
52614;SDS011;38508;53.158;6.614;2022-10-24T14:28:59;4.57;;;1.02;;
52614;SDS011;38508;53.158;6.614;2022-10-24T14:31:31;7.97;;;0.70;;
52614;SDS011;38508;53.158;6.614;2022-10-24T14:33:59;5.97;;;0.85;;
52614;SDS011;38508;53.158;6.614;2022-10-24T14:36:27;5.03;;;0.90;;
52614;SDS011;38508;53.158;6.614;2022-10-24T14:38:55;5.88;;;1.10;;
52614;SDS011;38508;53.158;6.614;2022-10-24T14:41:33;7.45;;;1.00;;
52614;SDS011;38508;53.158;6.614;2022-10-24T14:44:03;6.22;;;1.23;;
52614;SDS011;38508;53.158;6.614;2022-10-24T14:46:37;6.63;;;0.90;;
52614;SDS011;38508;53.158;6.614;2022-10-24T14:51:52;5.13;;;1.00;;
52614;SDS011;38508;53.158;6.614;2022-10-24T14:54:40;6.45;;;1.15;;
52614;SDS011;38508;53.158;6.614;2022-10-24T14:57:15;4.63;;;0.90;;
52614;SDS011;38508;53.158;6.614;2022-10-24T15:04:42;8.25;;;1.05;;
52614;SDS011;38508;53.158;6.614;2022-10-24T15:12:24;5.75;;;0.80;;
52614;SDS011;38508;53.158;6.614;2022-10-24T15:15:17;5.80;;;1.00;;
52614;SDS011;38508;53.158;6.614;2022-10-24T15:17:48;7.13;;;1.13;;
52614;SDS011;38508;53.158;6.614;2022-10-24T15:20:16;6.80;;;1.00;;
52614;SDS011;38508;53.158;6.614;2022-10-24T15:22:45;5.43;;;1.20;;
52614;SDS011;38508;53.158;6.614;2022-10-24T15:25:18;4.32;;;1.20;;
52614;SDS011;38508;53.158;6.614;2022-10-24T15:27:49;7.65;;;1.15;;
52614;SDS011;38508;53.158;6.614;2022-10-24T15:30:23;6.95;;;1.20;;
52614;SDS011;38508;53.158;6.614;2022-10-24T15:32:50;5.93;;;1.48;;
52614;SDS011;38508;53.158;6.614;2022-10-24T15:35:16;6.05;;;1.20;;
52614;SDS011;38508;53.158;6.614;2022-10-24T15:38:10;8.32;;;1.48;;
52614;SDS011;38508;53.158;6.614;2022-10-24T15:40:40;7.68;;;1.33;;
52614;SDS011;38508;53.158;6.614;2022-10-24T15:43:12;6.85;;;1.20;;
52614;SDS011;38508;53.158;6.614;2022-10-24T15:45:39;5.43;;;1.17;;
52614;SDS011;38508;53.158;6.614;2022-10-24T15:48:05;6.80;;;1.23;;
52614;SDS011;38508;53.158;6.614;2022-10-24T15:50:31;7.80;;;1.58;;
52614;SDS011;38508;53.158;6.614;2022-10-24T15:52:59;5.93;;;1.20;;
52614;SDS011;38508;53.158;6.614;2022-10-24T15:55:27;6.72;;;1.00;;
52614;SDS011;38508;53.158;6.614;2022-10-24T15:57:54;5.50;;;1.23;;
52614;SDS011;38508;53.158;6.614;2022-10-24T16:00:21;6.03;;;1.40;;
52614;SDS011;38508;53.158;6.614;2022-10-24T16:02:48;5.47;;;1.60;;
52614;SDS011;38508;53.158;6.614;2022-10-24T16:05:23;7.18;;;1.42;;
52614;SDS011;38508;53.158;6.614;2022-10-24T16:07:52;8.88;;;1.50;;
52614;SDS011;38508;53.158;6.614;2022-10-24T16:10:18;8.43;;;1.48;;
52614;SDS011;38508;53.158;6.614;2022-10-24T16:12:46;3.88;;;1.50;;
52614;SDS011;38508;53.158;6.614;2022-10-24T16:15:20;10.93;;;1.40;;
52614;SDS011;38508;53.158;6.614;2022-10-24T16:17:54;4.50;;;1.00;;
52614;SDS011;38508;53.158;6.614;2022-10-24T16:20:19;13.98;;;1.92;;
52614;SDS011;38508;53.158;6.614;2022-10-24T16:22:45;6.95;;;1.55;;
52614;SDS011;38508;53.158;6.614;2022-10-24T16:25:31;10.52;;;1.95;;
52614;SDS011;38508;53.158;6.614;2022-10-24T16:27:58;3.40;;;1.17;;
52614;SDS011;38508;53.158;6.614;2022-10-24T16:30:25;8.10;;;1.38;;
52614;SDS011;38508;53.158;6.614;2022-10-24T16:32:52;3.97;;;1.27;;
52614;SDS011;38508;53.158;6.614;2022-10-24T16:35:20;7.90;;;1.10;;
52614;SDS011;38508;53.158;6.614;2022-10-24T16:37:53;11.18;;;1.63;;
52614;SDS011;38508;53.158;6.614;2022-10-24T16:40:21;12.02;;;1.85;;
52614;SDS011;38508;53.158;6.614;2022-10-24T16:42:48;4.53;;;1.10;;
52614;SDS011;38508;53.158;6.614;2022-10-24T16:45:14;7.93;;;1.30;;
52614;SDS011;38508;53.158;6.614;2022-10-24T16:47:40;7.40;;;0.93;;
52614;SDS011;38508;53.158;6.614;2022-10-24T16:50:07;8.10;;;1.10;;
52614;SDS011;38508;53.158;6.614;2022-10-24T16:52:37;5.72;;;1.10;;
52614;SDS011;38508;53.158;6.614;2022-10-24T16:55:03;5.07;;;1.02;;
52614;SDS011;38508;53.158;6.614;2022-10-24T16:57:28;7.25;;;1.27;;
52614;SDS011;38508;53.158;6.614;2022-10-24T16:59:54;8.93;;;1.52;;
52614;SDS011;38508;53.158;6.614;2022-10-24T17:02:20;5.03;;;1.40;;
52614;SDS011;38508;53.158;6.614;2022-10-24T17:04:45;4.53;;;1.27;;
52614;SDS011;38508;53.158;6.614;2022-10-24T17:07:11;8.23;;;1.40;;
52614;SDS011;38508;53.158;6.614;2022-10-24T17:09:38;4.20;;;1.20;;
52614;SDS011;38508;53.158;6.614;2022-10-24T17:12:04;5.72;;;1.42;;
52614;SDS011;38508;53.158;6.614;2022-10-24T17:14:34;4.50;;;1.50;;
52614;SDS011;38508;53.158;6.614;2022-10-24T17:17:00;6.00;;;1.48;;
52614;SDS011;38508;53.158;6.614;2022-10-24T17:19:26;7.45;;;1.52;;
52614;SDS011;38508;53.158;6.614;2022-10-24T17:21:52;5.57;;;1.25;;
52614;SDS011;38508;53.158;6.614;2022-10-24T17:24:20;8.45;;;1.50;;
52614;SDS011;38508;53.158;6.614;2022-10-24T17:26:47;8.93;;;1.30;;
52614;SDS011;38508;53.158;6.614;2022-10-24T17:29:14;7.32;;;1.67;;
52614;SDS011;38508;53.158;6.614;2022-10-24T17:31:48;6.50;;;1.60;;